sensor_id;sensor_type;location;lat;lon;timestamp;P1;durP1;ratioP1;P2;durP2;ratioP2
10260;SDS011;5175;42.606;23.388;2022-12-07T00:00:36;25.50;;;19.23;;
10260;SDS011;5175;42.606;23.388;2022-12-07T00:03:02;25.23;;;20.27;;
10260;SDS011;5175;42.606;23.388;2022-12-07T00:05:29;24.83;;;20.37;;
10260;SDS011;5175;42.606;23.388;2022-12-07T00:07:56;29.73;;;20.40;;
10260;SDS011;5175;42.606;23.388;2022-12-07T00:10:24;29.40;;;20.30;;
10260;SDS011;5175;42.606;23.388;2022-12-07T00:12:51;28.50;;;19.53;;
10260;SDS011;5175;42.606;23.388;2022-12-07T00:15:18;30.57;;;22.03;;
10260;SDS011;5175;42.606;23.388;2022-12-07T00:17:45;34.00;;;23.67;;
10260;SDS011;5175;42.606;23.388;2022-12-07T00:20:11;34.60;;;26.10;;
10260;SDS011;5175;42.606;23.388;2022-12-07T00:22:38;33.17;;;24.90;;
10260;SDS011;5175;42.606;23.388;2022-12-07T00:25:05;34.90;;;25.63;;
10260;SDS011;5175;42.606;23.388;2022-12-07T00:27:34;32.90;;;25.20;;
10260;SDS011;5175;42.606;23.388;2022-12-07T00:30:00;32.47;;;24.23;;
10260;SDS011;5175;42.606;23.388;2022-12-07T00:32:27;32.43;;;25.47;;
10260;SDS011;5175;42.606;23.388;2022-12-07T00:34:54;30.90;;;23.30;;
10260;SDS011;5175;42.606;23.388;2022-12-07T00:37:21;32.33;;;24.83;;
10260;SDS011;5175;42.606;23.388;2022-12-07T00:39:47;33.97;;;25.43;;
10260;SDS011;5175;42.606;23.388;2022-12-07T00:42:14;33.63;;;24.93;;
10260;SDS011;5175;42.606;23.388;2022-12-07T00:44:42;37.37;;;26.07;;
10260;SDS011;5175;42.606;23.388;2022-12-07T00:47:09;35.37;;;26.47;;
10260;SDS011;5175;42.606;23.388;2022-12-07T00:49:36;34.77;;;25.87;;
10260;SDS011;5175;42.606;23.388;2022-12-07T00:52:03;33.80;;;23.83;;
10260;SDS011;5175;42.606;23.388;2022-12-07T00:54:30;34.80;;;25.90;;
10260;SDS011;5175;42.606;23.388;2022-12-07T00:56:56;32.00;;;25.03;;
10260;SDS011;5175;42.606;23.388;2022-12-07T00:59:23;28.23;;;20.80;;
10260;SDS011;5175;42.606;23.388;2022-12-07T01:01:51;27.00;;;19.70;;
10260;SDS011;5175;42.606;23.388;2022-12-07T01:04:18;28.37;;;20.63;;
10260;SDS011;5175;42.606;23.388;2022-12-07T01:06:45;28.40;;;21.40;;
10260;SDS011;5175;42.606;23.388;2022-12-07T01:09:12;27.83;;;21.17;;
10260;SDS011;5175;42.606;23.388;2022-12-07T01:11:38;25.83;;;19.77;;
10260;SDS011;5175;42.606;23.388;2022-12-07T01:14:05;23.67;;;18.17;;
10260;SDS011;5175;42.606;23.388;2022-12-07T01:16:32;26.67;;;20.03;;
10260;SDS011;5175;42.606;23.388;2022-12-07T01:19:01;28.83;;;20.50;;
10260;SDS011;5175;42.606;23.388;2022-12-07T01:21:30;27.93;;;19.77;;
10260;SDS011;5175;42.606;23.388;2022-12-07T01:24:00;24.87;;;19.23;;
10260;SDS011;5175;42.606;23.388;2022-12-07T01:26:27;26.37;;;19.60;;
10260;SDS011;5175;42.606;23.388;2022-12-07T01:28:54;25.63;;;18.60;;
10260;SDS011;5175;42.606;23.388;2022-12-07T01:31:24;26.20;;;19.17;;
10260;SDS011;5175;42.606;23.388;2022-12-07T01:33:52;25.00;;;18.73;;
10260;SDS011;5175;42.606;23.388;2022-12-07T01:36:23;21.20;;;16.07;;
10260;SDS011;5175;42.606;23.388;2022-12-07T01:38:53;21.60;;;16.50;;
10260;SDS011;5175;42.606;23.388;2022-12-07T01:41:23;21.20;;;16.47;;
10260;SDS011;5175;42.606;23.388;2022-12-07T01:44:11;22.87;;;17.57;;
10260;SDS011;5175;42.606;23.388;2022-12-07T01:46:41;23.90;;;16.67;;
10260;SDS011;5175;42.606;23.388;2022-12-07T01:49:10;26.50;;;19.13;;
10260;SDS011;5175;42.606;23.388;2022-12-07T01:51:42;28.07;;;20.87;;
10260;SDS011;5175;42.606;23.388;2022-12-07T01:54:11;27.63;;;20.20;;
10260;SDS011;5175;42.606;23.388;2022-12-07T01:56:41;27.57;;;21.03;;
10260;SDS011;5175;42.606;23.388;2022-12-07T01:59:14;31.67;;;21.07;;
10260;SDS011;5175;42.606;23.388;2022-12-07T02:01:43;31.90;;;22.23;;
10260;SDS011;5175;42.606;23.388;2022-12-07T02:04:10;31.17;;;23.17;;
10260;SDS011;5175;42.606;23.388;2022-12-07T02:06:38;34.40;;;24.70;;
10260;SDS011;5175;42.606;23.388;2022-12-07T02:09:07;32.67;;;23.07;;
10260;SDS011;5175;42.606;23.388;2022-12-07T02:11:34;38.97;;;24.67;;
10260;SDS011;5175;42.606;23.388;2022-12-07T02:14:00;33.40;;;22.10;;
10260;SDS011;5175;42.606;23.388;2022-12-07T02:16:29;30.10;;;21.43;;
10260;SDS011;5175;42.606;23.388;2022-12-07T02:19:14;25.13;;;17.97;;
10260;SDS011;5175;42.606;23.388;2022-12-07T02:22:06;23.57;;;17.83;;
10260;SDS011;5175;42.606;23.388;2022-12-07T02:24:52;26.03;;;18.57;;
10260;SDS011;5175;42.606;23.388;2022-12-07T02:27:27;27.53;;;18.93;;
10260;SDS011;5175;42.606;23.388;2022-12-07T02:30:05;23.23;;;17.20;;
10260;SDS011;5175;42.606;23.388;2022-12-07T02:32:38;32.00;;;23.50;;
10260;SDS011;5175;42.606;23.388;2022-12-07T02:35:11;34.77;;;26.90;;
10260;SDS011;5175;42.606;23.388;2022-12-07T02:37:47;30.27;;;21.73;;
10260;SDS011;5175;42.606;23.388;2022-12-07T02:40:21;29.97;;;21.87;;
10260;SDS011;5175;42.606;23.388;2022-12-07T02:42:52;27.47;;;20.40;;
10260;SDS011;5175;42.606;23.388;2022-12-07T02:45:26;177.87;;;28.43;;
10260;SDS011;5175;42.606;23.388;2022-12-07T02:47:56;26.93;;;18.70;;
10260;SDS011;5175;42.606;23.388;2022-12-07T02:50:25;27.73;;;19.23;;
10260;SDS011;5175;42.606;23.388;2022-12-07T02:52:53;29.30;;;19.77;;
10260;SDS011;5175;42.606;23.388;2022-12-07T02:55:22;27.93;;;19.23;;
10260;SDS011;5175;42.606;23.388;2022-12-07T02:57:54;25.63;;;17.80;;
10260;SDS011;5175;42.606;23.388;2022-12-07T03:00:35;25.00;;;18.03;;
10260;SDS011;5175;42.606;23.388;2022-12-07T03:03:12;23.10;;;17.30;;
10260;SDS011;5175;42.606;23.388;2022-12-07T03:05:48;22.30;;;16.93;;
10260;SDS011;5175;42.606;23.388;2022-12-07T03:08:30;23.63;;;16.60;;
10260;SDS011;5175;42.606;23.388;2022-12-07T03:11:04;21.70;;;15.53;;
10260;SDS011;5175;42.606;23.388;2022-12-07T03:13:36;24.70;;;16.60;;
10260;SDS011;5175;42.606;23.388;2022-12-07T03:16:10;24.33;;;15.67;;
10260;SDS011;5175;42.606;23.388;2022-12-07T03:18:42;19.83;;;15.60;;
10260;SDS011;5175;42.606;23.388;2022-12-07T03:21:14;18.17;;;14.30;;
10260;SDS011;5175;42.606;23.388;2022-12-07T03:23:44;18.63;;;14.27;;
10260;SDS011;5175;42.606;23.388;2022-12-07T03:26:16;19.33;;;14.43;;
10260;SDS011;5175;42.606;23.388;2022-12-07T03:28:47;18.47;;;13.67;;
10260;SDS011;5175;42.606;23.388;2022-12-07T03:31:21;20.17;;;13.63;;
10260;SDS011;5175;42.606;23.388;2022-12-07T03:33:51;18.03;;;14.57;;
10260;SDS011;5175;42.606;23.388;2022-12-07T03:36:24;18.07;;;13.40;;
10260;SDS011;5175;42.606;23.388;2022-12-07T03:38:56;16.33;;;11.47;;
10260;SDS011;5175;42.606;23.388;2022-12-07T03:41:29;16.63;;;11.57;;
10260;SDS011;5175;42.606;23.388;2022-12-07T03:43:59;19.97;;;12.20;;
10260;SDS011;5175;42.606;23.388;2022-12-07T03:46:29;16.40;;;10.47;;
10260;SDS011;5175;42.606;23.388;2022-12-07T03:49:04;13.07;;;9.90;;
10260;SDS011;5175;42.606;23.388;2022-12-07T03:51:37;12.73;;;10.70;;
10260;SDS011;5175;42.606;23.388;2022-12-07T03:54:10;16.50;;;11.23;;
10260;SDS011;5175;42.606;23.388;2022-12-07T03:56:40;14.73;;;11.73;;
10260;SDS011;5175;42.606;23.388;2022-12-07T03:59:09;15.43;;;11.00;;
10260;SDS011;5175;42.606;23.388;2022-12-07T04:01:42;15.07;;;12.07;;
10260;SDS011;5175;42.606;23.388;2022-12-07T04:04:09;19.00;;;13.27;;
10260;SDS011;5175;42.606;23.388;2022-12-07T04:06:36;16.83;;;13.73;;
10260;SDS011;5175;42.606;23.388;2022-12-07T04:09:03;17.60;;;13.57;;
10260;SDS011;5175;42.606;23.388;2022-12-07T04:11:30;18.50;;;13.80;;
10260;SDS011;5175;42.606;23.388;2022-12-07T04:13:56;20.07;;;13.40;;
10260;SDS011;5175;42.606;23.388;2022-12-07T04:16:42;21.70;;;15.77;;
10260;SDS011;5175;42.606;23.388;2022-12-07T04:19:09;22.10;;;16.13;;
10260;SDS011;5175;42.606;23.388;2022-12-07T04:21:35;19.37;;;14.80;;
10260;SDS011;5175;42.606;23.388;2022-12-07T04:24:03;21.70;;;16.00;;
10260;SDS011;5175;42.606;23.388;2022-12-07T04:26:30;19.87;;;15.73;;
10260;SDS011;5175;42.606;23.388;2022-12-07T04:28:57;24.30;;;19.20;;
10260;SDS011;5175;42.606;23.388;2022-12-07T04:31:23;26.33;;;21.53;;
10260;SDS011;5175;42.606;23.388;2022-12-07T04:33:52;25.33;;;18.73;;
10260;SDS011;5175;42.606;23.388;2022-12-07T04:36:18;25.50;;;18.70;;
10260;SDS011;5175;42.606;23.388;2022-12-07T04:38:45;23.37;;;19.13;;
10260;SDS011;5175;42.606;23.388;2022-12-07T04:41:13;20.77;;;17.03;;
10260;SDS011;5175;42.606;23.388;2022-12-07T04:43:40;22.83;;;17.87;;
10260;SDS011;5175;42.606;23.388;2022-12-07T04:46:06;21.87;;;17.57;;
10260;SDS011;5175;42.606;23.388;2022-12-07T04:48:33;21.87;;;16.23;;
10260;SDS011;5175;42.606;23.388;2022-12-07T04:51:01;19.07;;;15.33;;
10260;SDS011;5175;42.606;23.388;2022-12-07T04:53:28;15.47;;;11.80;;
10260;SDS011;5175;42.606;23.388;2022-12-07T04:55:55;19.83;;;17.17;;
10260;SDS011;5175;42.606;23.388;2022-12-07T04:58:22;20.73;;;17.63;;
10260;SDS011;5175;42.606;23.388;2022-12-07T05:00:49;20.00;;;16.10;;
10260;SDS011;5175;42.606;23.388;2022-12-07T05:03:15;17.27;;;12.47;;
10260;SDS011;5175;42.606;23.388;2022-12-07T05:05:42;17.43;;;14.00;;
10260;SDS011;5175;42.606;23.388;2022-12-07T05:08:10;19.60;;;14.03;;
10260;SDS011;5175;42.606;23.388;2022-12-07T05:10:37;19.07;;;13.73;;
10260;SDS011;5175;42.606;23.388;2022-12-07T05:13:06;16.67;;;11.73;;
10260;SDS011;5175;42.606;23.388;2022-12-07T05:15:33;18.50;;;14.33;;
10260;SDS011;5175;42.606;23.388;2022-12-07T05:18:00;18.47;;;13.47;;
10260;SDS011;5175;42.606;23.388;2022-12-07T05:20:28;15.47;;;11.67;;
10260;SDS011;5175;42.606;23.388;2022-12-07T05:22:55;16.13;;;12.20;;
10260;SDS011;5175;42.606;23.388;2022-12-07T05:25:24;16.67;;;12.70;;
10260;SDS011;5175;42.606;23.388;2022-12-07T05:27:51;21.47;;;14.70;;
10260;SDS011;5175;42.606;23.388;2022-12-07T05:30:18;22.53;;;16.03;;
10260;SDS011;5175;42.606;23.388;2022-12-07T05:32:45;24.47;;;16.73;;
10260;SDS011;5175;42.606;23.388;2022-12-07T05:35:12;23.20;;;17.80;;
10260;SDS011;5175;42.606;23.388;2022-12-07T05:37:39;23.00;;;16.50;;
10260;SDS011;5175;42.606;23.388;2022-12-07T05:40:06;27.57;;;17.93;;
10260;SDS011;5175;42.606;23.388;2022-12-07T05:42:35;24.57;;;16.33;;
10260;SDS011;5175;42.606;23.388;2022-12-07T05:45:01;26.30;;;17.37;;
10260;SDS011;5175;42.606;23.388;2022-12-07T05:47:28;24.87;;;18.40;;
10260;SDS011;5175;42.606;23.388;2022-12-07T05:49:54;20.80;;;16.30;;
10260;SDS011;5175;42.606;23.388;2022-12-07T05:52:21;25.63;;;17.43;;
10260;SDS011;5175;42.606;23.388;2022-12-07T05:54:48;27.33;;;18.50;;
10260;SDS011;5175;42.606;23.388;2022-12-07T05:57:15;26.77;;;19.83;;
10260;SDS011;5175;42.606;23.388;2022-12-07T05:59:43;23.20;;;17.77;;
10260;SDS011;5175;42.606;23.388;2022-12-07T06:02:10;27.03;;;18.73;;
10260;SDS011;5175;42.606;23.388;2022-12-07T06:04:39;23.80;;;18.53;;
10260;SDS011;5175;42.606;23.388;2022-12-07T06:07:07;24.13;;;18.40;;
10260;SDS011;5175;42.606;23.388;2022-12-07T06:09:34;27.07;;;17.57;;
10260;SDS011;5175;42.606;23.388;2022-12-07T06:12:02;23.73;;;16.77;;
10260;SDS011;5175;42.606;23.388;2022-12-07T06:14:48;25.40;;;16.67;;
10260;SDS011;5175;42.606;23.388;2022-12-07T06:17:15;24.73;;;18.03;;
10260;SDS011;5175;42.606;23.388;2022-12-07T06:19:42;40.87;;;26.97;;
10260;SDS011;5175;42.606;23.388;2022-12-07T06:22:09;41.23;;;21.43;;
10260;SDS011;5175;42.606;23.388;2022-12-07T06:24:37;26.90;;;19.07;;
10260;SDS011;5175;42.606;23.388;2022-12-07T06:27:04;26.77;;;18.73;;
10260;SDS011;5175;42.606;23.388;2022-12-07T06:29:31;25.43;;;18.23;;
10260;SDS011;5175;42.606;23.388;2022-12-07T06:31:59;27.30;;;18.97;;
10260;SDS011;5175;42.606;23.388;2022-12-07T06:34:26;28.67;;;20.33;;
10260;SDS011;5175;42.606;23.388;2022-12-07T06:36:53;28.13;;;19.63;;
10260;SDS011;5175;42.606;23.388;2022-12-07T06:39:22;30.83;;;20.43;;
10260;SDS011;5175;42.606;23.388;2022-12-07T06:41:50;30.67;;;19.87;;
10260;SDS011;5175;42.606;23.388;2022-12-07T06:44:18;29.90;;;20.33;;
10260;SDS011;5175;42.606;23.388;2022-12-07T06:46:46;27.90;;;20.07;;
10260;SDS011;5175;42.606;23.388;2022-12-07T06:49:15;25.27;;;19.47;;
10260;SDS011;5175;42.606;23.388;2022-12-07T06:51:42;25.80;;;19.37;;
10260;SDS011;5175;42.606;23.388;2022-12-07T06:54:09;33.47;;;21.87;;
10260;SDS011;5175;42.606;23.388;2022-12-07T06:56:37;32.10;;;23.33;;
10260;SDS011;5175;42.606;23.388;2022-12-07T06:59:04;32.37;;;22.80;;
10260;SDS011;5175;42.606;23.388;2022-12-07T07:01:32;37.70;;;26.40;;
10260;SDS011;5175;42.606;23.388;2022-12-07T07:03:59;38.73;;;26.37;;
10260;SDS011;5175;42.606;23.388;2022-12-07T07:06:28;39.03;;;27.73;;
10260;SDS011;5175;42.606;23.388;2022-12-07T07:08:55;38.43;;;25.83;;
10260;SDS011;5175;42.606;23.388;2022-12-07T07:11:21;37.40;;;26.47;;
10260;SDS011;5175;42.606;23.388;2022-12-07T07:13:48;42.43;;;28.07;;
10260;SDS011;5175;42.606;23.388;2022-12-07T07:16:15;37.53;;;26.57;;
10260;SDS011;5175;42.606;23.388;2022-12-07T07:18:42;40.03;;;25.90;;
10260;SDS011;5175;42.606;23.388;2022-12-07T07:21:09;38.27;;;26.53;;
10260;SDS011;5175;42.606;23.388;2022-12-07T07:23:37;37.70;;;26.23;;
10260;SDS011;5175;42.606;23.388;2022-12-07T07:26:04;39.83;;;26.43;;
10260;SDS011;5175;42.606;23.388;2022-12-07T07:28:31;36.57;;;26.27;;
10260;SDS011;5175;42.606;23.388;2022-12-07T07:30:57;40.13;;;26.93;;
10260;SDS011;5175;42.606;23.388;2022-12-07T07:33:24;39.00;;;26.20;;
10260;SDS011;5175;42.606;23.388;2022-12-07T07:35:51;42.87;;;26.93;;
10260;SDS011;5175;42.606;23.388;2022-12-07T07:38:18;40.13;;;26.37;;
10260;SDS011;5175;42.606;23.388;2022-12-07T07:40:46;40.30;;;26.40;;
10260;SDS011;5175;42.606;23.388;2022-12-07T07:43:12;39.57;;;26.27;;
10260;SDS011;5175;42.606;23.388;2022-12-07T07:45:39;43.97;;;26.87;;
10260;SDS011;5175;42.606;23.388;2022-12-07T07:48:06;41.43;;;27.00;;
10260;SDS011;5175;42.606;23.388;2022-12-07T07:50:33;41.30;;;26.77;;
10260;SDS011;5175;42.606;23.388;2022-12-07T07:53:00;41.90;;;26.67;;
10260;SDS011;5175;42.606;23.388;2022-12-07T07:55:27;40.13;;;27.53;;
10260;SDS011;5175;42.606;23.388;2022-12-07T07:57:55;44.50;;;27.63;;
10260;SDS011;5175;42.606;23.388;2022-12-07T08:00:22;42.77;;;28.33;;
10260;SDS011;5175;42.606;23.388;2022-12-07T08:02:49;41.23;;;28.13;;
10260;SDS011;5175;42.606;23.388;2022-12-07T08:05:16;47.37;;;30.23;;
10260;SDS011;5175;42.606;23.388;2022-12-07T08:07:42;45.33;;;29.73;;
10260;SDS011;5175;42.606;23.388;2022-12-07T08:10:10;44.97;;;29.73;;
10260;SDS011;5175;42.606;23.388;2022-12-07T08:12:38;41.53;;;28.87;;
10260;SDS011;5175;42.606;23.388;2022-12-07T08:15:28;47.73;;;32.13;;
10260;SDS011;5175;42.606;23.388;2022-12-07T08:17:56;53.53;;;32.20;;
10260;SDS011;5175;42.606;23.388;2022-12-07T08:20:23;48.47;;;31.80;;
10260;SDS011;5175;42.606;23.388;2022-12-07T08:22:49;51.67;;;32.37;;
10260;SDS011;5175;42.606;23.388;2022-12-07T08:25:16;44.40;;;30.67;;
10260;SDS011;5175;42.606;23.388;2022-12-07T08:27:43;48.87;;;31.27;;
10260;SDS011;5175;42.606;23.388;2022-12-07T08:30:10;46.17;;;31.47;;
10260;SDS011;5175;42.606;23.388;2022-12-07T08:32:39;45.70;;;31.57;;
10260;SDS011;5175;42.606;23.388;2022-12-07T08:35:06;42.27;;;28.20;;
10260;SDS011;5175;42.606;23.388;2022-12-07T08:37:34;42.10;;;28.03;;
10260;SDS011;5175;42.606;23.388;2022-12-07T08:40:00;52.73;;;34.83;;
10260;SDS011;5175;42.606;23.388;2022-12-07T08:42:27;43.20;;;30.23;;
10260;SDS011;5175;42.606;23.388;2022-12-07T08:45:02;39.90;;;28.27;;
10260;SDS011;5175;42.606;23.388;2022-12-07T08:47:30;41.03;;;27.13;;
10260;SDS011;5175;42.606;23.388;2022-12-07T08:49:58;38.33;;;27.00;;
10260;SDS011;5175;42.606;23.388;2022-12-07T08:52:28;39.83;;;26.73;;
10260;SDS011;5175;42.606;23.388;2022-12-07T08:54:56;39.33;;;26.53;;
10260;SDS011;5175;42.606;23.388;2022-12-07T08:57:24;44.87;;;26.70;;
10260;SDS011;5175;42.606;23.388;2022-12-07T08:59:51;53.43;;;29.57;;
10260;SDS011;5175;42.606;23.388;2022-12-07T09:02:17;41.20;;;25.53;;
10260;SDS011;5175;42.606;23.388;2022-12-07T09:04:44;37.63;;;26.57;;
10260;SDS011;5175;42.606;23.388;2022-12-07T09:07:12;36.03;;;27.10;;
10260;SDS011;5175;42.606;23.388;2022-12-07T09:09:39;37.97;;;26.73;;
10260;SDS011;5175;42.606;23.388;2022-12-07T09:12:06;37.70;;;25.20;;
10260;SDS011;5175;42.606;23.388;2022-12-07T09:14:34;36.40;;;24.90;;
10260;SDS011;5175;42.606;23.388;2022-12-07T09:17:06;33.90;;;24.80;;
10260;SDS011;5175;42.606;23.388;2022-12-07T09:19:35;38.17;;;25.27;;
10260;SDS011;5175;42.606;23.388;2022-12-07T09:22:02;37.73;;;24.57;;
10260;SDS011;5175;42.606;23.388;2022-12-07T09:24:31;33.13;;;25.27;;
10260;SDS011;5175;42.606;23.388;2022-12-07T09:26:58;34.63;;;23.50;;
10260;SDS011;5175;42.606;23.388;2022-12-07T09:29:25;29.57;;;22.40;;
10260;SDS011;5175;42.606;23.388;2022-12-07T09:31:52;31.57;;;23.07;;
10260;SDS011;5175;42.606;23.388;2022-12-07T09:34:18;28.93;;;21.67;;
10260;SDS011;5175;42.606;23.388;2022-12-07T09:36:46;27.20;;;20.67;;
10260;SDS011;5175;42.606;23.388;2022-12-07T09:39:13;27.20;;;20.90;;
10260;SDS011;5175;42.606;23.388;2022-12-07T09:41:43;33.57;;;21.20;;
10260;SDS011;5175;42.606;23.388;2022-12-07T09:44:11;30.67;;;22.27;;
10260;SDS011;5175;42.606;23.388;2022-12-07T09:46:40;30.83;;;22.50;;
10260;SDS011;5175;42.606;23.388;2022-12-07T09:49:10;30.37;;;22.53;;
10260;SDS011;5175;42.606;23.388;2022-12-07T09:51:40;32.43;;;22.87;;
10260;SDS011;5175;42.606;23.388;2022-12-07T09:54:07;29.17;;;22.63;;
10260;SDS011;5175;42.606;23.388;2022-12-07T09:56:39;32.77;;;23.60;;
10260;SDS011;5175;42.606;23.388;2022-12-07T09:59:09;30.00;;;22.90;;
10260;SDS011;5175;42.606;23.388;2022-12-07T10:01:42;31.17;;;21.73;;
10260;SDS011;5175;42.606;23.388;2022-12-07T10:04:11;34.33;;;23.20;;
10260;SDS011;5175;42.606;23.388;2022-12-07T10:06:43;28.97;;;21.30;;
10260;SDS011;5175;42.606;23.388;2022-12-07T10:09:11;27.63;;;21.10;;
10260;SDS011;5175;42.606;23.388;2022-12-07T10:11:57;28.30;;;20.97;;
10260;SDS011;5175;42.606;23.388;2022-12-07T10:14:36;27.93;;;20.37;;
10260;SDS011;5175;42.606;23.388;2022-12-07T10:20:02;30.30;;;21.53;;
10260;SDS011;5175;42.606;23.388;2022-12-07T10:22:46;28.53;;;20.13;;
10260;SDS011;5175;42.606;23.388;2022-12-07T10:25:21;27.83;;;20.57;;
10260;SDS011;5175;42.606;23.388;2022-12-07T10:27:57;29.33;;;21.77;;
10260;SDS011;5175;42.606;23.388;2022-12-07T10:30:26;28.50;;;21.67;;
10260;SDS011;5175;42.606;23.388;2022-12-07T10:32:52;27.67;;;20.97;;
10260;SDS011;5175;42.606;23.388;2022-12-07T10:35:21;29.63;;;21.17;;
10260;SDS011;5175;42.606;23.388;2022-12-07T10:37:50;30.20;;;21.47;;
10260;SDS011;5175;42.606;23.388;2022-12-07T10:40:28;27.23;;;21.37;;
10260;SDS011;5175;42.606;23.388;2022-12-07T10:43:02;27.40;;;20.10;;
10260;SDS011;5175;42.606;23.388;2022-12-07T10:45:31;28.67;;;20.33;;
10260;SDS011;5175;42.606;23.388;2022-12-07T10:47:59;27.37;;;19.93;;
10260;SDS011;5175;42.606;23.388;2022-12-07T10:53:39;26.93;;;19.97;;
10260;SDS011;5175;42.606;23.388;2022-12-07T10:56:27;24.47;;;18.63;;
10260;SDS011;5175;42.606;23.388;2022-12-07T10:59:15;24.23;;;18.00;;
10260;SDS011;5175;42.606;23.388;2022-12-07T11:01:54;25.67;;;17.27;;
10260;SDS011;5175;42.606;23.388;2022-12-07T11:04:35;22.93;;;16.23;;
10260;SDS011;5175;42.606;23.388;2022-12-07T11:07:10;26.30;;;16.97;;
10260;SDS011;5175;42.606;23.388;2022-12-07T11:09:49;21.13;;;15.53;;
10260;SDS011;5175;42.606;23.388;2022-12-07T11:12:26;25.93;;;15.33;;
10260;SDS011;5175;42.606;23.388;2022-12-07T11:15:01;22.60;;;15.07;;
10260;SDS011;5175;42.606;23.388;2022-12-07T11:17:42;22.30;;;15.53;;
10260;SDS011;5175;42.606;23.388;2022-12-07T11:20:19;22.57;;;15.87;;
10260;SDS011;5175;42.606;23.388;2022-12-07T11:22:57;22.37;;;15.57;;
10260;SDS011;5175;42.606;23.388;2022-12-07T11:25:31;22.60;;;15.27;;
10260;SDS011;5175;42.606;23.388;2022-12-07T11:28:04;23.93;;;16.43;;
10260;SDS011;5175;42.606;23.388;2022-12-07T11:30:46;24.93;;;15.83;;
10260;SDS011;5175;42.606;23.388;2022-12-07T11:33:25;24.83;;;15.60;;
10260;SDS011;5175;42.606;23.388;2022-12-07T11:36:01;24.47;;;18.03;;
10260;SDS011;5175;42.606;23.388;2022-12-07T11:38:37;28.90;;;20.27;;
10260;SDS011;5175;42.606;23.388;2022-12-07T11:41:08;25.57;;;19.40;;
10260;SDS011;5175;42.606;23.388;2022-12-07T11:43:52;26.67;;;20.10;;
10260;SDS011;5175;42.606;23.388;2022-12-07T11:46:22;29.67;;;21.57;;
10260;SDS011;5175;42.606;23.388;2022-12-07T11:48:58;27.63;;;21.30;;
10260;SDS011;5175;42.606;23.388;2022-12-07T11:51:30;28.60;;;20.67;;
10260;SDS011;5175;42.606;23.388;2022-12-07T11:54:02;30.87;;;20.70;;
10260;SDS011;5175;42.606;23.388;2022-12-07T11:56:31;27.83;;;21.47;;
10260;SDS011;5175;42.606;23.388;2022-12-07T11:59:04;27.47;;;20.27;;
10260;SDS011;5175;42.606;23.388;2022-12-07T12:01:41;32.93;;;20.33;;
10260;SDS011;5175;42.606;23.388;2022-12-07T12:04:19;23.50;;;17.10;;
10260;SDS011;5175;42.606;23.388;2022-12-07T12:06:54;26.07;;;17.37;;
10260;SDS011;5175;42.606;23.388;2022-12-07T12:09:21;26.83;;;18.83;;
10260;SDS011;5175;42.606;23.388;2022-12-07T12:14:47;27.20;;;18.50;;
10260;SDS011;5175;42.606;23.388;2022-12-07T12:17:28;27.80;;;18.10;;
10260;SDS011;5175;42.606;23.388;2022-12-07T12:20:15;25.67;;;17.03;;
10260;SDS011;5175;42.606;23.388;2022-12-07T12:22:48;25.87;;;17.57;;
10260;SDS011;5175;42.606;23.388;2022-12-07T12:25:20;22.53;;;15.50;;
10260;SDS011;5175;42.606;23.388;2022-12-07T12:27:50;24.70;;;16.07;;
10260;SDS011;5175;42.606;23.388;2022-12-07T12:30:25;24.80;;;16.03;;
10260;SDS011;5175;42.606;23.388;2022-12-07T12:33:03;19.50;;;15.27;;
10260;SDS011;5175;42.606;23.388;2022-12-07T12:35:34;22.80;;;14.83;;
10260;SDS011;5175;42.606;23.388;2022-12-07T12:38:24;22.13;;;15.37;;
10260;SDS011;5175;42.606;23.388;2022-12-07T12:40:58;24.80;;;16.53;;
10260;SDS011;5175;42.606;23.388;2022-12-07T12:43:44;26.30;;;16.70;;
10260;SDS011;5175;42.606;23.388;2022-12-07T12:52:47;30.53;;;20.97;;
10260;SDS011;5175;42.606;23.388;2022-12-07T12:55:22;30.37;;;21.47;;
10260;SDS011;5175;42.606;23.388;2022-12-07T13:04:00;32.07;;;22.73;;
10260;SDS011;5175;42.606;23.388;2022-12-07T13:06:33;39.00;;;21.90;;
10260;SDS011;5175;42.606;23.388;2022-12-07T13:09:04;26.80;;;21.20;;
10260;SDS011;5175;42.606;23.388;2022-12-07T13:11:44;31.07;;;21.60;;
10260;SDS011;5175;42.606;23.388;2022-12-07T13:17:08;30.40;;;21.30;;
10260;SDS011;5175;42.606;23.388;2022-12-07T13:22:35;32.73;;;21.73;;
10260;SDS011;5175;42.606;23.388;2022-12-07T13:25:21;30.03;;;20.77;;
10260;SDS011;5175;42.606;23.388;2022-12-07T13:27:55;31.60;;;21.20;;
10260;SDS011;5175;42.606;23.388;2022-12-07T13:30:27;35.37;;;21.17;;
10260;SDS011;5175;42.606;23.388;2022-12-07T13:32:56;38.77;;;20.97;;
10260;SDS011;5175;42.606;23.388;2022-12-07T13:35:28;30.30;;;20.70;;
10260;SDS011;5175;42.606;23.388;2022-12-07T13:38:01;30.17;;;20.33;;
10260;SDS011;5175;42.606;23.388;2022-12-07T13:40:31;33.10;;;20.83;;
10260;SDS011;5175;42.606;23.388;2022-12-07T13:42:58;34.53;;;21.17;;
10260;SDS011;5175;42.606;23.388;2022-12-07T13:45:27;43.47;;;22.60;;
10260;SDS011;5175;42.606;23.388;2022-12-07T13:48:14;36.20;;;21.47;;
10260;SDS011;5175;42.606;23.388;2022-12-07T13:50:52;32.03;;;21.30;;
10260;SDS011;5175;42.606;23.388;2022-12-07T13:53:20;32.77;;;21.33;;
10260;SDS011;5175;42.606;23.388;2022-12-07T13:55:48;31.53;;;19.53;;
10260;SDS011;5175;42.606;23.388;2022-12-07T13:58:15;36.27;;;20.13;;
10260;SDS011;5175;42.606;23.388;2022-12-07T14:00:42;38.70;;;20.83;;
10260;SDS011;5175;42.606;23.388;2022-12-07T14:03:25;39.90;;;20.80;;
10260;SDS011;5175;42.606;23.388;2022-12-07T14:06:10;30.70;;;20.27;;
10260;SDS011;5175;42.606;23.388;2022-12-07T14:08:41;28.83;;;20.70;;
10260;SDS011;5175;42.606;23.388;2022-12-07T14:11:11;30.67;;;20.57;;
10260;SDS011;5175;42.606;23.388;2022-12-07T14:13:44;31.67;;;20.93;;
10260;SDS011;5175;42.606;23.388;2022-12-07T14:16:20;31.80;;;20.97;;
10260;SDS011;5175;42.606;23.388;2022-12-07T14:18:50;36.43;;;21.90;;
10260;SDS011;5175;42.606;23.388;2022-12-07T14:21:18;29.00;;;20.20;;
10260;SDS011;5175;42.606;23.388;2022-12-07T14:24:02;35.10;;;20.67;;
10260;SDS011;5175;42.606;23.388;2022-12-07T14:26:36;28.17;;;19.23;;
10260;SDS011;5175;42.606;23.388;2022-12-07T14:29:21;33.93;;;21.03;;
10260;SDS011;5175;42.606;23.388;2022-12-07T14:31:54;32.83;;;20.60;;
10260;SDS011;5175;42.606;23.388;2022-12-07T14:34:21;33.97;;;22.03;;
10260;SDS011;5175;42.606;23.388;2022-12-07T14:36:49;28.03;;;21.10;;
10260;SDS011;5175;42.606;23.388;2022-12-07T14:39:16;29.63;;;20.10;;
10260;SDS011;5175;42.606;23.388;2022-12-07T14:41:44;36.53;;;21.60;;
10260;SDS011;5175;42.606;23.388;2022-12-07T14:44:17;32.17;;;22.03;;
10260;SDS011;5175;42.606;23.388;2022-12-07T14:46:44;29.20;;;21.13;;
10260;SDS011;5175;42.606;23.388;2022-12-07T14:49:11;28.47;;;20.73;;
10260;SDS011;5175;42.606;23.388;2022-12-07T14:51:39;38.10;;;25.07;;
10260;SDS011;5175;42.606;23.388;2022-12-07T14:54:07;36.20;;;23.13;;
10260;SDS011;5175;42.606;23.388;2022-12-07T14:56:41;36.50;;;21.33;;
10260;SDS011;5175;42.606;23.388;2022-12-07T14:59:11;33.57;;;21.50;;
10260;SDS011;5175;42.606;23.388;2022-12-07T15:01:38;30.60;;;19.50;;
10260;SDS011;5175;42.606;23.388;2022-12-07T15:04:05;31.50;;;19.97;;
10260;SDS011;5175;42.606;23.388;2022-12-07T15:06:32;57.47;;;41.10;;